Terminal Aerodrome Forecast
Issued by NWS Denver/Boulder, CO

Home | Current Version | Previous Version | Text Only | Print | Product List | Glossary On
Versions: 1 2 3 4 5 6 7 8 9 10 11 12 13 14 15 16 17 18 19 20 21 22 23 24 25 26 27 28 29 30 31 32 33 34 35 36 37 38 39 40 41 42 43 44 45 46 47 48 49 50
000
FTUS45 KBOU 060855 AAB
TAFDEN
TAF AMD
KDEN 060855Z 0609/0712 35009KT P6SM VCSH BKN014 BKN050 OVC100
      TEMPO 0609/0611 -SHRA SCT009 OVC014
     FM061100 01011KT P6SM VCFG BKN012 OVC025
      TEMPO 0611/0614 -RA BKN012
     FM061400 03010KT P6SM VCSH BKN020 OVC035
      TEMPO 0614/0618 -SHRA OVC020
     FM061900 05009KT P6SM VCTS SCT025CB BKN040
      TEMPO 0621/0701 -SHRA BKN025
     FM070100 08008KT P6SM VCSH SCT025 BKN040
     FM070600 15006KT P6SM VCSH SCT015 BKN025=

USA.gov is the U.S. government's official web portal to all federal, state and local government web resources and services.